Time;durP1;ratioP1;P1;durP2;ratioP2;P2;SDS_P1;SDS_P2;PMS_P1;PMS_P2;Temp;Humidity;BMP_temperature;BMP_pressure;BME280_temperature;BME280_humidity;BME280_pressure;Samples;Min_cycle;Max_cycle;Signal;HPM_P1;HPM_P2
2022/03/16 00:02:23;;;;;;;23.48;17.25;;;;;;;9.70;75.79;97327.44;4919254;29;20124;-80
2022/03/16 00:04:52;;;;;;;25.38;18.27;;;;;;;9.73;76.47;97323.72;4938902;23;20047;-77
2022/03/16 00:07:21;;;;;;;25.23;19.52;;;;;;;9.76;76.39;97330.41;4944623;29;20059;-77
2022/03/16 00:09:50;;;;;;;23.50;18.65;;;;;;;9.78;76.33;97320.63;4941855;29;20044;-75
2022/03/16 00:12:18;;;;;;;26.38;19.58;;;;;;;9.82;76.13;97325.38;4942153;29;20056;-78
2022/03/16 00:14:46;;;;;;;26.88;20.33;;;;;;;9.83;76.24;97326.97;4948365;29;20509;-77
2022/03/16 00:17:14;;;;;;;25.02;18.58;;;;;;;9.86;76.39;97323.22;4942636;29;20066;-73
2022/03/16 00:19:42;;;;;;;26.23;19.40;;;;;;;9.87;76.17;97323.09;4939677;29;20085;-76
2022/03/16 00:22:09;;;;;;;26.67;20.52;;;;;;;9.88;76.30;97327.34;4949838;29;20059;-76
2022/03/16 00:24:37;;;;;;;25.60;18.73;;;;;;;9.91;76.58;97334.00;4949193;29;20047;-75
2022/03/16 00:27:06;;;;;;;27.08;19.95;;;;;;;9.90;76.20;97321.94;4938246;29;20506;-77
2022/03/16 00:29:34;;;;;;;26.08;20.10;;;;;;;9.92;76.45;97316.59;4941825;29;20066;-77
2022/03/16 00:32:03;;;;;;;26.80;20.27;;;;;;;9.93;76.27;97323.41;4944414;29;20074;-77
2022/03/16 00:34:31;;;;;;;27.10;21.05;;;;;;;9.93;75.86;97326.00;4943249;29;20052;-77
2022/03/16 00:37:00;;;;;;;27.17;20.13;;;;;;;9.92;75.82;97322.59;4941784;29;20090;-77
2022/03/16 00:39:27;;;;;;;29.15;21.45;;;;;;;9.94;75.78;97325.06;4942597;29;20529;-74
2022/03/16 00:41:56;;;;;;;27.52;20.50;;;;;;;9.93;76.02;97323.41;4942984;29;20059;-76
2022/03/16 00:44:25;;;;;;;27.13;20.58;;;;;;;9.93;75.97;97328.63;4942636;29;20058;-75
2022/03/16 00:46:53;;;;;;;25.88;19.73;;;;;;;9.92;75.52;97329.63;4941845;29;20056;-75
2022/03/16 00:49:21;;;;;;;28.20;20.55;;;;;;;9.89;75.05;97326.34;4941643;29;20498;-75
2022/03/16 00:51:48;;;;;;;26.80;20.80;;;;;;;9.87;75.29;97328.28;4942169;29;20102;-75
2022/03/16 00:54:16;;;;;;;29.00;20.23;;;;;;;9.86;75.44;97326.69;4942082;29;20051;-76
2022/03/16 00:56:43;;;;;;;27.80;22.42;;;;;;;9.87;75.77;97327.50;4941253;29;20051;-75
2022/03/16 00:59:11;;;;;;;27.95;20.50;;;;;;;9.87;75.76;97322.28;4923112;29;20052;-75
2022/03/16 01:01:40;;;;;;;29.42;21.58;;;;;;;9.85;75.37;97319.81;4922956;29;20450;-75
2022/03/16 01:04:07;;;;;;;28.05;21.58;;;;;;;9.85;75.70;97322.41;4922063;29;20463;-74
2022/03/16 01:06:35;;;;;;;28.00;21.45;;;;;;;9.85;74.97;97327.63;4921827;29;20062;-76
2022/03/16 01:09:03;;;;;;;29.10;20.98;;;;;;;9.82;74.69;97320.16;4922339;29;20499;-76
2022/03/16 01:11:31;;;;;;;30.67;22.55;;;;;;;9.83;75.46;97333.97;4922699;29;20063;-77
2022/03/16 01:13:58;;;;;;;31.40;22.98;;;;;;;9.82;75.35;97325.38;4923101;29;20052;-76
2022/03/16 01:16:26;;;;;;;27.58;21.50;;;;;;;9.81;75.29;97323.72;4921616;29;20051;-75
2022/03/16 01:18:55;;;;;;;31.98;23.75;;;;;;;9.80;75.75;97316.88;4922114;29;20052;-76
2022/03/16 01:21:22;;;;;;;30.15;21.58;;;;;;;9.80;75.48;97321.28;4921501;29;20507;-76
2022/03/16 01:23:52;;;;;;;29.90;22.10;;;;;;;9.77;75.73;97325.00;4922073;29;20052;-76
2022/03/16 01:26:19;;;;;;;28.80;22.10;;;;;;;9.74;75.63;97317.50;4920964;29;20059;-76
2022/03/16 01:28:47;;;;;;;31.08;24.35;;;;;;;9.69;74.87;97317.19;4921683;29;20052;-75
2022/03/16 01:31:14;;;;;;;33.25;24.50;;;;;;;9.63;75.01;97315.22;4921559;29;20130;-77
2022/03/16 01:33:42;;;;;;;32.65;23.38;;;;;;;9.61;75.63;97317.97;4921692;29;20056;-75
2022/03/16 01:36:11;;;;;;;32.72;23.48;;;;;;;9.63;76.11;97325.63;4920988;29;20421;-76
2022/03/16 01:38:38;;;;;;;33.78;24.85;;;;;;;9.65;76.31;97319.28;4921515;29;20055;-75
2022/03/16 01:41:06;;;;;;;31.38;23.42;;;;;;;9.66;76.42;97320.09;4921222;29;20281;-76
2022/03/16 01:43:33;;;;;;;32.88;23.92;;;;;;;9.64;75.74;97317.66;4921499;29;20533;-77
2022/03/16 01:46:01;;;;;;;32.13;23.08;;;;;;;9.64;75.57;97320.25;4920623;29;20051;-76
2022/03/16 01:48:28;;;;;;;32.58;23.25;;;;;;;9.63;75.69;97320.41;4921295;29;20092;-76
2022/03/16 01:50:56;;;;;;;33.45;24.02;;;;;;;9.63;75.54;97317.81;4920810;29;20051;-75
2022/03/16 01:53:26;;;;;;;32.42;23.55;;;;;;;9.67;76.40;97319.13;4920387;29;20052;-75
2022/03/16 01:55:54;;;;;;;30.38;22.42;;;;;;;9.66;75.29;97318.31;4920123;29;20044;-78
2022/03/16 01:58:22;;;;;;;31.33;22.30;;;;;;;9.64;75.26;97317.66;4933564;29;20454;-75
2022/03/16 02:00:49;;;;;;;30.63;23.08;;;;;;;9.66;75.47;97314.88;4939680;29;20495;-76
2022/03/16 02:03:17;;;;;;;31.52;22.02;;;;;;;9.65;74.93;97308.84;4939942;29;20127;-76
2022/03/16 02:05:45;;;;;;;32.45;23.23;;;;;;;9.62;74.08;97319.59;4939157;29;20499;-75
2022/03/16 02:08:13;;;;;;;30.63;23.00;;;;;;;9.56;74.91;97315.03;4939111;29;20059;-74
2022/03/16 02:10:42;;;;;;;32.47;22.80;;;;;;;9.51;74.16;97316.44;4939288;29;20054;-76
2022/03/16 02:13:11;;;;;;;28.02;20.88;;;;;;;9.49;75.42;97307.03;4939437;29;20066;-77
2022/03/16 02:15:39;;;;;;;33.78;23.52;;;;;;;9.50;74.94;97318.25;4939267;29;20055;-76
2022/03/16 02:18:07;;;;;;;32.08;22.25;;;;;;;9.52;74.97;97318.91;4937887;29;20051;-74
2022/03/16 02:20:35;;;;;;;30.40;21.95;;;;;;;9.50;75.31;97315.66;4939428;29;20059;-76
2022/03/16 02:23:06;;;;;;;32.85;22.77;;;;;;;9.53;76.63;97324.94;4938809;29;20506;-76
2022/03/16 02:25:48;;;;;;;32.25;23.25;;;;;;;9.53;75.96;97317.13;4939040;29;20052;-75
2022/03/16 02:28:15;;;;;;;32.97;22.38;;;;;;;9.49;75.09;97316.63;4939192;29;20076;-75
2022/03/16 02:30:43;;;;;;;32.17;21.63;;;;;;;9.45;74.62;97323.94;4939383;29;20067;-76
2022/03/16 02:33:10;;;;;;;31.98;22.13;;;;;;;9.37;74.04;97331.69;4939143;29;20040;-77
2022/03/16 02:35:38;;;;;;;32.42;22.42;;;;;;;9.28;73.92;97336.06;4938231;29;20059;-76
2022/03/16 02:38:07;;;;;;;28.98;20.92;;;;;;;9.26;74.68;97339.78;4937714;29;20055;-75
2022/03/16 02:40:35;;;;;;;31.30;21.48;;;;;;;9.21;73.35;97342.84;4938658;29;20078;-76
2022/03/16 02:43:03;;;;;;;26.40;20.45;;;;;;;9.13;73.20;97345.41;4938576;29;20055;-76
2022/03/16 02:45:30;;;;;;;24.73;18.73;;;;;;;9.06;72.99;97345.22;4938628;29;20071;-78
2022/03/16 02:47:58;;;;;;;28.17;19.58;;;;;;;9.05;73.68;97342.75;4937750;29;20063;-75
2022/03/16 02:50:26;;;;;;;23.38;18.65;;;;;;;9.05;72.94;97342.75;4938413;29;20060;-79
2022/03/16 02:52:54;;;;;;;22.80;17.63;;;;;;;9.02;73.34;97349.09;4929808;29;20056;-74
2022/03/16 02:55:44;;;;;;;26.13;18.38;;;;;;;9.03;73.49;97355.94;4918965;29;20371;-77
2022/03/16 02:58:11;;;;;;;25.27;17.50;;;;;;;9.03;73.13;97357.69;4930172;29;20129;-75
2022/03/16 03:00:39;;;;;;;24.25;18.25;;;;;;;9.02;73.00;97354.28;4938141;29;20062;-76
2022/03/16 03:03:07;;;;;;;27.92;20.23;;;;;;;8.98;72.52;97358.16;4938410;29;20047;-75
2022/03/16 03:05:34;;;;;;;23.98;17.65;;;;;;;9.00;74.49;97360.63;4938033;29;20058;-77
2022/03/16 03:08:02;;;;;;;23.88;18.10;;;;;;;9.03;73.42;97365.50;4938621;29;20047;-76
2022/03/16 03:10:30;;;;;;;27.55;19.10;;;;;;;9.01;73.18;97363.09;4937953;29;20055;-78
2022/03/16 03:12:59;;;;;;;25.52;18.88;;;;;;;8.98;72.51;97365.16;4937602;29;20048;-76
2022/03/16 03:15:26;;;;;;;26.92;18.83;;;;;;;8.93;72.37;97367.41;4937165;29;20060;-78
2022/03/16 03:17:54;;;;;;;26.40;19.13;;;;;;;8.89;72.67;97361.69;4935996;29;20048;-75
2022/03/16 03:20:21;;;;;;;29.05;20.20;;;;;;;8.86;72.50;97360.22;4937826;29;20052;-77
2022/03/16 03:22:49;;;;;;;26.50;19.30;;;;;;;8.87;73.17;97355.81;4937698;29;20055;-77
2022/03/16 03:25:16;;;;;;;27.52;20.83;;;;;;;8.89;72.60;97356.47;4937266;29;20097;-77
2022/03/16 03:27:44;;;;;;;26.10;19.35;;;;;;;8.85;72.47;97355.16;4936268;29;20314;-76
2022/03/16 03:30:13;;;;;;;28.38;20.00;;;;;;;8.81;72.66;97361.63;4940689;29;20058;-76
2022/03/16 03:32:40;;;;;;;27.30;19.85;;;;;;;8.76;72.09;97363.88;4947446;29;20055;-76
2022/03/16 03:35:09;;;;;;;28.10;19.75;;;;;;;8.69;72.64;97361.06;4947712;29;20465;-80
2022/03/16 03:37:37;;;;;;;23.35;17.83;;;;;;;8.71;73.04;97359.13;4940434;29;20052;-78
2022/03/16 03:40:07;;;;;;;26.30;19.42;;;;;;;8.71;72.80;97368.72;4938781;29;20058;-78
2022/03/16 03:42:34;;;;;;;25.58;19.65;;;;;;;8.69;72.65;97370.66;4937763;29;20052;-76
2022/03/16 03:45:02;;;;;;;24.60;19.00;;;;;;;8.64;72.33;97371.09;4936836;29;20529;-77
2022/03/16 03:47:31;;;;;;;22.52;17.60;;;;;;;8.62;72.38;97375.63;4936566;29;20063;-77
2022/03/16 03:49:59;;;;;;;22.55;17.27;;;;;;;8.63;73.45;97365.06;4937014;29;20059;-77
2022/03/16 03:52:26;;;;;;;24.45;17.80;;;;;;;8.68;72.76;97371.59;4937281;29;20115;-79
2022/03/16 03:54:54;;;;;;;21.42;17.50;;;;;;;8.63;71.77;97372.06;4940794;29;20059;-79
2022/03/16 03:57:21;;;;;;;21.63;16.83;;;;;;;8.58;71.62;97372.50;4940371;29;20128;-78
2022/03/16 03:59:48;;;;;;;22.55;17.27;;;;;;;8.54;71.28;97383.38;4939052;29;20070;-75
2022/03/16 04:02:16;;;;;;;25.75;18.77;;;;;;;8.47;71.10;97372.75;4938901;29;20071;-78
2022/03/16 04:04:45;;;;;;;23.30;18.80;;;;;;;8.42;70.49;97382.78;4939895;29;20051;-76
2022/03/16 04:07:13;;;;;;;25.20;18.75;;;;;;;8.34;70.80;97390.47;4938479;29;20048;-77
2022/03/16 04:09:40;;;;;;;22.48;17.10;;;;;;;8.29;70.77;97390.06;4942066;29;20055;-77
2022/03/16 04:12:09;;;;;;;22.73;17.55;;;;;;;8.23;71.00;97397.50;4939928;29;20063;-78
2022/03/16 04:14:37;;;;;;;23.50;17.77;;;;;;;8.17;70.47;97395.50;4938028;29;20098;-77
2022/03/16 04:17:05;;;;;;;24.55;17.58;;;;;;;8.11;70.52;97395.25;4938028;29;20052;-76
2022/03/16 04:19:32;;;;;;;23.77;18.27;;;;;;;8.07;70.90;97393.91;4938506;29;20475;-76
2022/03/16 04:22:01;;;;;;;24.77;19.55;;;;;;;8.01;70.57;97403.94;4938114;29;20052;-76
2022/03/16 04:24:29;;;;;;;23.92;17.60;;;;;;;7.98;70.76;97412.03;4938194;29;20055;-77
2022/03/16 04:26:57;;;;;;;26.08;19.02;;;;;;;7.96;70.87;97413.13;4937174;29;20058;-76
2022/03/16 04:29:24;;;;;;;26.75;19.33;;;;;;;7.92;70.97;97411.81;4937857;29;20062;-77
2022/03/16 04:31:53;;;;;;;24.63;18.42;;;;;;;7.84;71.25;97413.31;4937132;29;20418;-76
2022/03/16 04:34:20;;;;;;;27.55;20.45;;;;;;;7.80;71.29;97413.75;4937170;29;20062;-78
2022/03/16 04:36:48;;;;;;;26.38;19.42;;;;;;;7.77;71.56;97414.88;4936701;29;20048;-76
2022/03/16 04:39:17;;;;;;;24.80;19.13;;;;;;;7.74;71.77;97420.38;4937343;29;20052;-75
2022/03/16 04:41:45;;;;;;;26.00;19.77;;;;;;;7.75;71.96;97421.97;4937131;29;20055;-76
2022/03/16 04:44:13;;;;;;;28.08;20.00;;;;;;;7.75;71.50;97419.38;4936711;29;20055;-76
2022/03/16 04:46:40;;;;;;;28.10;19.60;;;;;;;7.75;71.57;97418.56;4936584;29;20063;-77
2022/03/16 04:49:08;;;;;;;27.90;20.15;;;;;;;7.74;71.90;97420.38;4936291;29;20056;-76
2022/03/16 04:51:35;;;;;;;22.77;17.83;;;;;;;7.75;71.55;97423.78;4936716;29;20051;-78
2022/03/16 04:54:03;;;;;;;25.80;18.80;;;;;;;7.75;71.70;97426.38;4936620;29;20529;-76
2022/03/16 04:56:34;;;;;;;24.20;18.85;;;;;;;7.71;71.67;97425.81;4933372;29;20602;-76
2022/03/16 04:59:01;;;;;;;25.65;18.60;;;;;;;7.69;71.46;97432.94;4924574;29;20062;-77
2022/03/16 05:01:29;;;;;;;25.20;18.88;;;;;;;7.65;71.19;97436.78;4936594;29;20051;-78
2022/03/16 05:03:57;;;;;;;27.02;18.60;;;;;;;7.60;71.28;97434.63;4936269;29;20052;-76
2022/03/16 05:06:24;;;;;;;24.42;18.25;;;;;;;7.59;71.34;97427.00;4935911;29;20051;-77
2022/03/16 05:08:52;;;;;;;22.35;16.95;;;;;;;7.56;71.35;97437.63;4936301;29;20043;-78
2022/03/16 05:11:20;;;;;;;25.75;18.60;;;;;;;7.52;71.53;97437.13;4936187;29;20052;-77
2022/03/16 05:13:49;;;;;;;27.05;19.17;;;;;;;7.46;71.24;97437.69;4936796;29;20071;-81
2022/03/16 05:16:17;;;;;;;26.70;19.02;;;;;;;7.44;71.80;97449.97;4936064;29;20074;-76
2022/03/16 05:18:45;;;;;;;26.23;19.15;;;;;;;7.40;71.33;97449.44;4938985;29;20058;-76
2022/03/16 05:21:14;;;;;;;26.20;18.92;;;;;;;7.39;71.52;97458.19;4940079;29;20051;-76
2022/03/16 05:23:42;;;;;;;24.92;18.77;;;;;;;7.37;71.87;97454.91;4940038;29;20054;-76
2022/03/16 05:26:09;;;;;;;28.05;18.55;;;;;;;7.38;71.86;97463.53;4938809;29;20055;-78
2022/03/16 05:28:37;;;;;;;26.75;19.30;;;;;;;7.40;71.86;97464.19;4939696;29;20495;-77
2022/03/16 05:31:06;;;;;;;25.00;19.02;;;;;;;7.40;71.81;97475.38;4939529;29;20058;-74
2022/03/16 05:33:33;;;;;;;25.02;18.75;;;;;;;7.45;71.87;97474.97;4927335;29;20126;-79
2022/03/16 05:36:01;;;;;;;25.35;19.25;;;;;;;7.47;71.31;97469.66;4938017;29;20425;-76
2022/03/16 05:38:29;;;;;;;26.35;19.10;;;;;;;7.47;71.20;97462.66;4938979;29;20047;-76
2022/03/16 05:40:56;;;;;;;27.10;18.55;;;;;;;7.46;71.34;97457.63;4938993;29;20058;-76
2022/03/16 05:43:24;;;;;;;26.73;18.58;;;;;;;7.46;71.34;97465.44;4929488;29;20052;-79
2022/03/16 05:45:51;;;;;;;24.70;18.67;;;;;;;7.46;71.50;97463.66;4920785;29;20060;-74
2022/03/16 05:48:20;;;;;;;26.67;19.08;;;;;;;7.44;71.78;97457.78;4935746;29;20056;-78
2022/03/16 05:50:48;;;;;;;23.77;17.95;;;;;;;7.43;71.70;97463.91;4923743;29;20425;-76
2022/03/16 05:53:16;;;;;;;22.92;17.08;;;;;;;7.43;71.90;97458.72;4933834;29;20044;-78
2022/03/16 05:55:43;;;;;;;30.17;20.58;;;;;;;7.46;71.73;97452.44;4923066;29;20051;-77
2022/03/16 05:58:11;;;;;;;25.13;17.90;;;;;;;7.47;71.22;97451.47;4939188;29;20055;-78
2022/03/16 06:00:42;;;;;;;23.38;17.25;;;;;;;7.46;71.70;97453.25;4937042;29;20445;-77
2022/03/16 06:03:11;;;;;;;24.30;17.20;;;;;;;7.43;71.18;97456.97;4930683;29;20055;-78
2022/03/16 06:05:40;;;;;;;23.67;17.00;;;;;;;7.38;71.08;97456.53;4940548;29;20142;-84
2022/03/16 06:08:08;;;;;;;22.80;16.55;;;;;;;7.36;71.38;97463.66;4933479;29;20048;-82
2022/03/16 09:20:29;;;;;;;17.85;12.80;;;;;;;9.79;64.21;97556.75;5632613;23;20362;-82
2022/03/16 09:23:01;;;;;;;19.00;13.25;;;;;;;9.93;64.74;97552.75;4962053;28;20028;-82
2022/03/16 09:25:36;;;;;;;15.60;12.10;;;;;;;10.13;64.14;97554.19;4963285;28;20047;-82
2022/03/16 09:28:40;;;;;;;;;;;;;;;;;;;;;
2022/03/16 09:31:13;;;;;;;13.18;11.18;;;;;;;10.72;62.62;97544.66;5968028;23;21091;-82
2022/03/16 11:08:35;;;;;;;11.85;10.65;;;;;;;22.66;32.64;97462.38;5250040;23;20091;-79
2022/03/16 11:25:21;;;;;;;10.60;9.60;;;;;;;24.38;29.37;97445.75;5813689;23;20083;-78
2022/03/16 11:28:06;;;;;;;11.80;9.30;;;;;;;24.68;29.50;97443.44;5573398;23;20060;-77
2022/03/16 11:30:37;;;;;;;10.05;9.15;;;;;;;24.90;28.98;97447.94;4930150;29;20060;-77
2022/03/16 11:33:08;;;;;;;10.50;9.50;;;;;;;25.14;30.07;97437.72;4917294;29;20055;-77
2022/03/16 12:02:23;;;;;;;9.38;8.63;;;;;;;26.41;25.83;97433.38;5773819;23;20086;-78
2022/03/16 12:05:20;;;;;;;10.45;9.45;;;;;;;26.36;25.55;97430.69;4942095;28;20059;-79
2022/03/16 12:12:50;;;;;;;9.10;8.30;;;;;;;26.41;25.62;97411.97;5014667;23;20054;-81
2022/03/16 12:13:44;;;;;;;10.88;9.88;;;;;;;25.93;25.33;97420.09;4935512;29;20051;-82
2022/03/16 12:16:18;;;;;;;10.18;9.20;;;;;;;25.74;26.41;97411.72;4930759;29;20063;-82
2022/03/16 12:18:47;;;;;;;11.02;10.02;;;;;;;25.59;26.43;97409.75;4936866;29;20056;-80
2022/03/16 12:21:15;;;;;;;10.95;9.88;;;;;;;24.66;27.52;97408.25;4933634;29;20059;-81
2022/03/16 12:23:58;;;;;;;12.35;10.32;;;;;;;23.32;28.64;97396.97;4917563;29;20048;-82
2022/03/16 12:26:28;;;;;;;10.93;9.73;;;;;;;22.03;30.22;97393.09;4902261;29;20053;-82
2022/03/16 12:29:03;;;;;;;17.27;9.95;;;;;;;20.85;32.21;97395.78;4902302;29;20049;-81
2022/03/16 12:31:31;;;;;;;10.82;9.82;;;;;;;20.17;33.49;97395.06;4922689;29;20149;-82
2022/03/16 12:34:00;;;;;;;9.98;9.07;;;;;;;19.55;34.52;97386.41;4922720;29;20063;-82
2022/03/16 12:36:29;;;;;;;12.27;11.07;;;;;;;19.03;35.37;97391.16;4929880;29;20055;-81
2022/03/16 12:38:59;;;;;;;11.45;10.27;;;;;;;18.56;37.21;97382.72;4928304;29;20048;-82
2022/03/16 12:44:16;;;;;;;12.52;11.27;;;;;;;17.84;37.79;97377.59;4936785;29;20055;-81
2022/03/16 12:46:53;;;;;;;13.15;11.85;;;;;;;17.61;38.10;97368.31;4928171;29;20052;-81
2022/03/16 12:49:24;;;;;;;12.88;11.52;;;;;;;17.39;38.45;97366.94;4925613;29;20055;-81
2022/03/16 12:51:52;;;;;;;11.85;10.63;;;;;;;17.17;39.83;97364.53;4922413;29;20052;-81
2022/03/16 12:54:27;;;;;;;13.10;11.57;;;;;;;16.98;40.23;97370.63;4932048;29;20051;-81
2022/03/16 12:56:58;;;;;;;12.60;11.32;;;;;;;16.83;41.33;97357.66;4929022;29;20063;-81
2022/03/16 12:59:28;;;;;;;13.77;12.48;;;;;;;16.63;40.82;97363.69;4932785;29;20048;-81
2022/03/16 13:01:57;;;;;;;12.38;10.63;;;;;;;16.39;41.23;97365.09;4947436;29;20051;-81
2022/03/16 13:04:27;;;;;;;12.40;11.18;;;;;;;16.09;41.82;97366.41;4932451;29;20056;-81
2022/03/16 13:06:57;;;;;;;13.85;12.50;;;;;;;15.91;42.26;97366.97;4937172;29;20059;-82
2022/03/16 13:09:28;;;;;;;16.08;12.85;;;;;;;15.76;43.02;97364.47;4933426;29;20052;-82
2022/03/16 13:12:04;;;;;;;12.55;11.35;;;;;;;15.63;44.06;97347.63;4930035;29;20135;-82
2022/03/16 13:14:36;;;;;;;15.82;13.27;;;;;;;15.49;43.14;97340.66;4933229;29;20054;-81
2022/03/16 13:17:06;;;;;;;16.27;14.68;;;;;;;15.16;43.69;97330.75;4950444;29;20095;-81
2022/03/16 13:19:39;;;;;;;15.93;13.57;;;;;;;14.92;44.46;97339.09;4953501;29;20063;-82
2022/03/16 13:22:09;;;;;;;15.43;13.77;;;;;;;14.76;44.49;97342.81;4949487;29;20153;-82
2022/03/16 13:24:39;;;;;;;15.68;13.68;;;;;;;14.55;45.52;97330.50;4941080;29;20525;-82
2022/03/16 13:27:10;;;;;;;15.65;14.05;;;;;;;14.42;46.01;97323.28;4946460;29;20254;-82
2022/03/16 13:29:40;;;;;;;16.95;13.70;;;;;;;14.25;45.65;97333.22;4955175;29;20115;-81
2022/03/16 13:32:09;;;;;;;15.38;13.63;;;;;;;14.01;46.13;97334.38;4949772;29;20193;-82
2022/03/16 13:34:39;;;;;;;17.08;14.20;;;;;;;13.88;46.98;97339.50;4941655;29;20070;-82
2022/03/16 13:37:21;;;;;;;15.68;14.07;;;;;;;13.75;47.45;97332.28;4930552;29;20044;-82
2022/03/16 13:40:00;;;;;;;18.05;13.30;;;;;;;13.70;48.08;97338.06;4923228;29;20052;-81
2022/03/16 13:42:29;;;;;;;18.25;14.13;;;;;;;13.73;48.41;97334.25;4925026;29;20073;-80
2022/03/16 13:45:18;;;;;;;17.60;14.23;;;;;;;13.69;48.45;97331.22;4922651;29;20447;-81
2022/03/16 13:47:47;;;;;;;16.17;14.45;;;;;;;13.62;48.84;97321.63;4936560;29;20055;-82
2022/03/16 13:50:25;;;;;;;16.35;13.95;;;;;;;13.64;49.17;97330.13;4931960;29;20139;-82
2022/03/16 13:52:56;;;;;;;15.73;14.13;;;;;;;13.69;49.03;97325.16;4928317;29;20097;-82
2022/03/16 13:55:24;;;;;;;17.02;13.70;;;;;;;13.65;48.73;97321.28;4936383;29;20052;-82
2022/03/16 13:57:52;;;;;;;15.48;13.45;;;;;;;13.58;49.00;97316.75;4928218;29;20051;-82
2022/03/16 14:00:25;;;;;;;17.15;14.43;;;;;;;13.52;48.95;97306.19;4938269;29;20055;-82
2022/03/16 14:03:10;;;;;;;21.58;14.52;;;;;;;13.46;49.77;97292.00;4935657;29;20060;-82
2022/03/16 14:05:44;;;;;;;17.13;14.60;;;;;;;13.43;49.40;97297.63;4944962;29;20062;-82
2022/03/16 14:08:13;;;;;;;17.15;14.75;;;;;;;13.31;49.79;97293.81;4955826;29;20060;-82
2022/03/16 14:10:42;;;;;;;17.77;14.68;;;;;;;13.23;49.33;97317.47;4955506;29;20047;-82
2022/03/16 14:13:13;;;;;;;16.13;14.45;;;;;;;13.14;49.65;97319.34;4954987;29;20051;-82
2022/03/16 14:15:43;;;;;;;16.08;14.20;;;;;;;13.09;50.59;97322.53;4936098;29;20056;-82
2022/03/16 14:18:14;;;;;;;16.67;12.90;;;;;;;13.12;50.28;97331.84;4935925;29;20048;-81
2022/03/16 14:20:48;;;;;;;15.05;13.30;;;;;;;13.15;50.13;97321.81;4946119;29;20066;-82
2022/03/16 14:23:16;;;;;;;16.08;14.48;;;;;;;13.20;50.19;97331.75;4950464;29;20051;-82
2022/03/16 14:25:48;;;;;;;16.38;13.95;;;;;;;13.24;49.59;97337.44;4954131;29;20119;-81
2022/03/16 14:28:17;;;;;;;15.57;13.30;;;;;;;13.23;49.24;97333.19;4939427;29;20056;-82
2022/03/16 14:30:49;;;;;;;16.15;13.15;;;;;;;13.26;50.40;97327.59;4947152;29;20107;-82
2022/03/16 14:33:20;;;;;;;14.32;12.88;;;;;;;13.29;48.95;97322.81;4951719;29;20054;-82
2022/03/16 14:35:54;;;;;;;17.73;14.70;;;;;;;13.24;49.24;97319.91;4934114;29;20076;-82
2022/03/16 14:38:29;;;;;;;15.43;13.88;;;;;;;13.23;50.14;97312.22;4935037;29;20048;-82
2022/03/16 14:41:11;;;;;;;16.45;14.60;;;;;;;13.20;48.93;97308.97;4940745;29;20058;-82
2022/03/16 14:43:41;;;;;;;14.65;13.05;;;;;;;13.22;49.31;97316.66;4954544;29;20056;-82
2022/03/16 14:46:10;;;;;;;17.52;14.27;;;;;;;13.20;49.16;97311.59;4935897;29;20051;-82
2022/03/16 14:48:38;;;;;;;15.38;13.77;;;;;;;13.25;50.75;97308.44;4935253;29;20086;-81
2022/03/16 14:51:08;;;;;;;16.40;14.65;;;;;;;13.19;48.79;97294.25;4942003;29;20052;-81
2022/03/16 14:53:35;;;;;;;15.80;14.18;;;;;;;13.06;48.98;97294.06;4941141;29;20082;-82
2022/03/16 14:56:04;;;;;;;15.18;13.68;;;;;;;13.02;48.58;97292.81;4942089;29;20059;-82
2022/03/16 14:58:36;;;;;;;15.55;13.80;;;;;;;12.94;48.89;97287.66;4955332;29;20087;-82
2022/03/16 15:01:07;;;;;;;16.05;13.98;;;;;;;12.93;49.74;97281.59;4947348;29;20063;-82
2022/03/16 15:03:36;;;;;;;18.13;14.32;;;;;;;13.00;50.00;97273.84;4935480;29;20059;-82
2022/03/16 15:06:04;;;;;;;17.08;14.63;;;;;;;13.06;49.72;97270.50;4934286;29;20062;-82
2022/03/16 15:08:34;;;;;;;21.80;15.38;;;;;;;13.11;49.58;97273.38;4942544;29;20056;-82
2022/03/16 15:11:02;;;;;;;16.02;14.43;;;;;;;13.04;49.08;97262.00;4945783;29;20130;-82
2022/03/16 15:13:40;;;;;;;18.60;15.55;;;;;;;12.97;49.88;97256.69;4951641;29;20059;-81
2022/03/16 15:16:18;;;;;;;19.23;15.90;;;;;;;12.94;49.63;97256.22;4952228;29;20494;-81
2022/03/16 15:18:47;;;;;;;20.55;17.75;;;;;;;12.92;49.64;97272.13;4946039;29;20051;-82
2022/03/16 15:21:21;;;;;;;18.30;16.38;;;;;;;12.86;49.70;97270.22;4935760;29;20044;-82
2022/03/16 15:23:51;;;;;;;19.92;17.38;;;;;;;12.79;49.32;97266.72;4929702;29;20048;-81
2022/03/16 15:26:18;;;;;;;16.88;15.18;;;;;;;12.74;49.47;97262.00;4926620;29;20043;-82
2022/03/16 15:28:51;;;;;;;18.52;15.90;;;;;;;12.70;49.58;97265.16;4942303;29;20052;-82
2022/03/16 15:31:20;;;;;;;17.98;16.05;;;;;;;12.69;49.86;97264.34;4920758;29;20103;-82
2022/03/16 15:33:49;;;;;;;20.23;15.43;;;;;;;12.64;49.60;97258.84;4922547;29;20059;-82
2022/03/16 15:36:17;;;;;;;19.08;15.38;;;;;;;12.60;49.75;97262.78;4929248;29;20094;-81
2022/03/16 15:38:45;;;;;;;17.75;15.82;;;;;;;12.54;49.89;97266.13;4915540;29;20064;-82
2022/03/16 15:43:59;;;;;;;16.73;15.05;;;;;;;12.50;51.61;97270.06;4925853;29;20056;-82
2022/03/16 15:46:27;;;;;;;18.75;16.75;;;;;;;12.54;50.83;97271.34;4923464;29;20107;-81
2022/03/16 15:49:20;;;;;;;40.67;27.73;;;;;;;12.54;50.98;97260.88;4928241;29;20065;-82
2022/03/16 15:51:50;;;;;;;19.95;16.98;;;;;;;12.51;50.72;97266.50;4924568;29;20067;-82
2022/03/16 15:54:17;;;;;;;17.85;16.02;;;;;;;12.49;50.87;97264.03;4929066;29;20048;-82
2022/03/16 15:56:46;;;;;;;17.38;15.45;;;;;;;12.50;51.34;97246.53;4922923;29;20134;-82
2022/03/16 15:59:14;;;;;;;21.23;16.92;;;;;;;12.50;50.63;97247.34;4926813;29;20107;-81
2022/03/16 16:01:43;;;;;;;19.92;16.23;;;;;;;12.44;50.72;97248.06;4935810;29;20065;-81
2022/03/16 16:04:15;;;;;;;;;;;;;;;12.45;50.97;97238.41;4942491;29;20085;-82
2022/03/16 16:06:53;;;;;;;18.83;14.93;;;;;;;12.36;50.94;97243.72;4936988;29;19970;-81
2022/03/16 16:09:21;;;;;;;21.08;16.35;;;;;;;12.32;50.95;97245.03;4923036;29;20051;-81
2022/03/16 16:11:51;;;;;;;22.60;17.05;;;;;;;12.30;51.90;97249.63;4935177;29;20087;-81
2022/03/16 16:14:20;;;;;;;23.65;17.15;;;;;;;12.32;51.80;97234.59;4931798;29;20080;-81
2022/03/16 16:16:50;;;;;;;19.50;17.40;;;;;;;12.34;51.65;97240.44;4931865;29;20056;-82
2022/03/16 16:19:19;;;;;;;20.27;16.85;;;;;;;12.36;51.95;97243.72;4930909;29;20052;-82
2022/03/16 16:24:25;;;;;;;19.63;17.30;;;;;;;12.31;52.36;97261.75;4926420;29;20264;-80
2022/03/16 16:26:54;;;;;;;20.35;16.67;;;;;;;12.31;51.90;97266.97;4932636;29;20054;-80
2022/03/16 16:29:27;;;;;;;19.13;16.52;;;;;;;12.29;52.50;97274.19;4963595;28;20057;-80
2022/03/16 16:31:56;;;;;;;21.08;17.70;;;;;;;12.29;51.90;97268.94;5035273;23;20044;-79
2022/03/16 16:34:29;;;;;;;19.23;17.13;;;;;;;12.23;51.42;97268.84;4944811;28;20052;-80
2022/03/16 16:36:58;;;;;;;20.90;17.08;;;;;;;12.16;51.81;97266.13;4941103;29;20067;-80
2022/03/16 16:39:26;;;;;;;20.25;17.08;;;;;;;12.10;51.59;97261.59;4942581;29;20063;-78
2022/03/16 16:43:09;;;;;;;19.75;17.63;;;;;;;12.01;52.84;97258.22;4934227;29;20052;-79
2022/03/16 16:44:49;;;;;;;21.17;18.13;;;;;;;12.00;51.94;97266.22;4929652;29;20055;-80
2022/03/16 17:09:06;;;;;;;20.88;18.17;;;;;;;11.85;52.46;97266.97;3330244;23;20058;-80
2022/03/16 17:11:35;;;;;;;20.33;18.13;;;;;;;11.74;52.68;97259.47;4947510;28;20058;-79
2022/03/16 17:14:14;;;;;;;19.83;17.70;;;;;;;11.68;53.18;97257.59;4937490;29;20062;-80
2022/03/16 17:16:42;;;;;;;21.05;18.85;;;;;;;11.68;53.05;97265.44;4938708;29;20062;-79
2022/03/16 17:19:10;;;;;;;23.75;17.90;;;;;;;11.67;52.77;97261.16;4937940;29;20127;-80
2022/03/16 17:21:37;;;;;;;21.85;18.33;;;;;;;11.64;53.19;97269.38;4940846;29;20062;-79
2022/03/16 17:24:07;;;;;;;20.55;17.40;;;;;;;11.58;53.33;97263.00;4938879;29;20047;-79
2022/03/16 17:26:35;;;;;;;20.98;17.33;;;;;;;11.50;53.26;97269.09;4939398;29;20062;-80
2022/03/16 17:29:03;;;;;;;20.73;18.27;;;;;;;11.43;53.56;97260.31;4945526;29;20067;-80
2022/03/16 17:31:31;;;;;;;23.17;18.50;;;;;;;11.37;53.55;97261.00;4958656;28;20059;-79
2022/03/16 17:34:00;;;;;;;22.73;18.27;;;;;;;11.28;53.84;97265.44;4945534;28;20055;-80
2022/03/16 17:36:27;;;;;;;20.45;18.25;;;;;;;11.24;53.98;97266.78;4938959;29;20063;-80